Time;durP1;ratioP1;P1;durP2;ratioP2;P2;SDS_P1;SDS_P2;PMS_P1;PMS_P2;Temp;Humidity;BMP_temperature;BMP_pressure;BME280_temperature;BME280_humidity;BME280_pressure;Samples;Min_cycle;Max_cycle;Signal;HPM_P1;HPM_P2
2021/11/08 00:01:20;;;;;;;7.43;6.65;;;;;;;15.47;71.18;101143.38;5049175;27;102457;-48
2021/11/08 00:03:48;;;;;;;7.07;6.38;;;;;;;15.48;71.19;101127.75;5055836;27;102601;-47
2021/11/08 00:06:16;;;;;;;8.37;6.17;;;;;;;15.47;71.10;101118.69;5030297;27;104049;-46
2021/11/08 00:09:04;;;;;;;7.97;6.65;;;;;;;15.47;71.10;101102.25;5048099;27;102426;-49
2021/11/08 00:11:32;;;;;;;8.52;6.38;;;;;;;15.48;71.48;101111.28;5052210;27;102169;-47
2021/11/08 00:13:58;;;;;;;7.30;6.40;;;;;;;15.47;70.98;101104.13;5047149;27;102184;-48
2021/11/08 00:22:12;;;;;;;6.90;6.20;;;;;;;15.48;70.80;101106.59;5053839;27;101930;-48
2021/11/08 00:24:46;;;;;;;7.07;6.38;;;;;;;15.48;70.97;101117.59;5055704;27;102255;-46
2021/11/08 00:27:13;;;;;;;7.43;6.22;;;;;;;15.48;70.99;101112.09;5054069;27;103894;-47
2021/11/08 00:29:41;;;;;;;7.18;5.90;;;;;;;15.47;71.14;101112.38;5055930;27;102880;-47
2021/11/08 00:32:13;;;;;;;7.68;6.55;;;;;;;15.47;71.00;101094.00;5050170;27;102426;-46
2021/11/08 00:34:56;;;;;;;6.53;5.88;;;;;;;15.47;71.20;101094.00;5051636;27;102191;-47
2021/11/08 00:37:22;;;;;;;6.90;6.20;;;;;;;15.47;70.77;101083.03;5045170;27;103975;-47
2021/11/08 00:39:49;;;;;;;7.72;6.10;;;;;;;15.48;70.98;101081.91;5053464;27;102145;-47
2021/11/08 00:42:19;;;;;;;7.05;6.32;;;;;;;15.47;71.07;101083.03;5052949;27;102239;-47
2021/11/08 00:44:45;;;;;;;7.13;6.22;;;;;;;15.47;71.00;101076.72;5054544;27;102415;-46
2021/11/08 00:47:13;;;;;;;7.43;6.68;;;;;;;15.47;71.01;101072.06;5048387;27;104166;-47
2021/11/08 00:49:40;;;;;;;6.63;5.93;;;;;;;15.48;70.91;101078.38;5040501;27;101819;-47
2021/11/08 00:52:09;;;;;;;8.45;6.55;;;;;;;15.47;70.89;101063.84;5052378;27;101973;-47
2021/11/08 00:54:35;;;;;;;7.73;6.93;;;;;;;15.48;70.93;101062.72;5052152;27;102640;-48
2021/11/08 00:57:03;;;;;;;7.55;6.43;;;;;;;15.47;71.36;101061.09;5051938;27;104527;-48
2021/11/08 00:59:29;;;;;;;7.30;6.55;;;;;;;15.47;70.87;101055.63;5053779;27;102198;-48
2021/11/08 01:01:58;;;;;;;6.95;6.25;;;;;;;15.47;70.92;101061.09;5044239;27;104015;-48
2021/11/08 01:04:26;;;;;;;6.63;5.93;;;;;;;15.48;71.40;101062.72;5046712;27;102608;-47
2021/11/08 01:06:59;;;;;;;8.37;6.63;;;;;;;15.47;71.29;101069.31;5049745;27;103901;-48
2021/11/08 01:09:27;;;;;;;7.20;6.40;;;;;;;15.48;71.23;101062.72;5032992;27;102182;-47
2021/11/08 01:11:54;;;;;;;6.90;6.20;;;;;;;15.47;70.96;101063.84;5048671;27;105679;-47
2021/11/08 01:14:20;;;;;;;7.63;6.82;;;;;;;15.48;70.87;101027.06;5055948;27;102120;-47
2021/11/08 01:16:55;;;;;;;7.55;6.53;;;;;;;15.48;70.89;101035.28;5056509;27;103685;-51
2021/11/08 01:19:22;;;;;;;6.15;5.53;;;;;;;15.48;71.27;101040.78;5057028;27;102257;-48
2021/11/08 01:21:51;;;;;;;7.78;6.10;;;;;;;15.48;71.09;101070.94;5056351;27;102183;-46
2021/11/08 01:24:17;;;;;;;6.65;5.93;;;;;;;15.47;71.43;101072.06;5054089;27;102314;-48
2021/11/08 01:26:46;;;;;;;7.38;6.28;;;;;;;15.47;70.96;101055.63;5050038;27;103892;-48
2021/11/08 01:29:13;;;;;;;;;;;;;;;15.48;71.45;101067.41;5042486;27;101992;-47
2021/11/08 01:31:39;;;;;;;6.88;6.18;;;;;;;15.47;70.99;101058.34;5040260;27;102429;-47
2021/11/08 01:34:05;;;;;;;6.68;6.05;;;;;;;15.48;71.02;101073.69;5050904;27;102382;-47
2021/11/08 01:36:38;;;;;;;7.55;6.57;;;;;;;15.48;71.44;101068.22;5052755;27;103728;-47
2021/11/08 01:39:18;;;;;;;7.13;6.43;;;;;;;15.47;70.99;101072.06;5053752;27;102072;-49
2021/11/08 01:41:46;;;;;;;8.10;6.82;;;;;;;15.48;70.91;101073.69;5050666;27;102233;-47
2021/11/08 01:44:14;;;;;;;7.40;6.33;;;;;;;15.48;71.50;101061.91;5047754;27;102250;-50
2021/11/08 01:46:40;;;;;;;7.28;5.95;;;;;;;15.48;71.43;101054.50;5050655;27;104046;-48
2021/11/08 01:49:07;;;;;;;6.72;6.03;;;;;;;15.48;71.13;101084.66;5045942;27;103236;-47
2021/11/08 01:51:35;;;;;;;6.63;5.93;;;;;;;15.47;71.44;101074.81;5055737;27;102153;-47
2021/11/08 01:54:03;;;;;;;7.13;6.25;;;;;;;15.47;71.11;101094.00;5052544;27;102464;-48
2021/11/08 01:56:31;;;;;;;7.28;6.50;;;;;;;15.48;70.99;101079.19;5040043;27;103981;-47
2021/11/08 01:58:58;;;;;;;7.50;6.37;;;;;;;15.48;71.25;101059.16;5055091;27;102201;-49
2021/11/08 02:01:25;;;;;;;7.00;6.03;;;;;;;15.48;71.38;101043.53;5040509;27;102401;-47
2021/11/08 02:03:51;;;;;;;6.65;5.95;;;;;;;15.47;71.30;101017.22;5057835;27;102465;-47
2021/11/08 02:06:18;;;;;;;8.02;6.38;;;;;;;15.47;71.38;101017.22;5055753;27;103952;-47
2021/11/08 02:08:44;;;;;;;7.68;6.43;;;;;;;15.48;70.92;101040.78;5049508;27;101999;-47
2021/11/08 02:11:11;;;;;;;6.47;5.80;;;;;;;15.47;71.51;101022.69;5053010;27;102208;-47
2021/11/08 02:13:39;;;;;;;6.78;6.07;;;;;;;15.48;71.34;101031.75;5057554;27;102179;-49
2021/11/08 02:16:07;;;;;;;6.90;6.20;;;;;;;15.48;70.86;101023.50;5056073;27;104590;-48
2021/11/08 02:18:35;;;;;;;7.03;6.30;;;;;;;15.47;71.30;101006.25;5048458;27;102609;-49
2021/11/08 02:21:07;;;;;;;7.63;6.47;;;;;;;15.48;71.14;101046.25;5043404;27;102591;-47
2021/11/08 02:23:34;;;;;;;6.72;6.03;;;;;;;15.48;71.07;101090.16;5050847;27;102262;-50
2021/11/08 02:26:03;;;;;;;7.05;6.30;;;;;;;15.48;71.31;101092.88;5052796;27;103952;-47
2021/11/08 02:28:30;;;;;;;8.50;6.78;;;;;;;15.48;71.09;101108.53;5051830;27;102946;-46
2021/11/08 02:30:58;;;;;;;7.90;6.43;;;;;;;15.48;71.07;101097.56;5039026;27;102514;-47
2021/11/08 02:33:25;;;;;;;8.52;6.60;;;;;;;15.48;71.54;101094.81;5047833;27;102404;-49
2021/11/08 02:35:54;;;;;;;7.40;6.65;;;;;;;15.47;71.47;101104.97;5056104;27;104049;-47
2021/11/08 02:40:50;;;;;;;8.27;6.88;;;;;;;15.48;71.19;101114.84;5045411;27;102311;-47
2021/11/08 02:43:21;;;;;;;7.07;5.95;;;;;;;15.48;71.00;101117.59;5052771;27;102514;-46
2021/11/08 02:45:49;;;;;;;7.78;6.97;;;;;;;15.48;71.53;101117.59;5053332;27;103875;-47
2021/11/08 02:48:16;;;;;;;8.05;6.75;;;;;;;15.48;71.54;101106.59;5047924;27;102609;-47
2021/11/08 02:50:42;;;;;;;8.30;6.82;;;;;;;15.47;71.56;101088.53;5048732;27;102347;-48
2021/11/08 02:53:14;;;;;;;8.50;5.97;;;;;;;15.48;71.08;101089.34;5052044;27;102362;-47
2021/11/08 02:55:42;;;;;;;7.13;6.43;;;;;;;15.48;71.18;101106.59;5050290;27;104017;-49
2021/11/08 02:58:09;;;;;;;7.60;6.20;;;;;;;15.48;71.02;101125.00;5054252;27;102298;-47
2021/11/08 03:00:37;;;;;;;7.38;6.50;;;;;;;15.49;71.58;101102.75;5045902;27;102400;-48
2021/11/08 03:03:04;;;;;;;7.72;6.63;;;;;;;15.48;71.18;101101.13;5056146;27;102594;-50
2021/11/08 03:05:32;;;;;;;8.25;6.72;;;;;;;15.48;71.56;101106.59;5046194;27;104518;-48
2021/11/08 03:07:59;;;;;;;8.15;6.97;;;;;;;15.48;71.07;101095.63;5042637;27;102350;-47
2021/11/08 03:10:29;;;;;;;8.38;6.40;;;;;;;15.49;70.98;101096.44;5054148;27;102279;-49
2021/11/08 03:12:59;;;;;;;8.00;6.47;;;;;;;15.49;71.05;101091.78;5052450;27;102523;-48
2021/11/08 03:16:08;;;;;;;7.78;6.93;;;;;;;15.49;71.42;101069.03;5053334;27;103923;-47
2021/11/08 03:18:36;;;;;;;8.15;6.55;;;;;;;15.48;71.08;101079.19;5034505;27;102492;-48
2021/11/08 03:21:03;;;;;;;7.63;6.80;;;;;;;15.49;71.22;101069.84;5045585;27;102107;-53
2021/11/08 03:23:31;;;;;;;6.97;6.28;;;;;;;15.49;71.66;101080.00;5047087;27;102634;-47
2021/11/08 03:28:25;;;;;;;9.30;7.00;;;;;;;15.49;71.41;101086.28;5052516;27;102584;-48
2021/11/08 03:30:52;;;;;;;6.97;6.28;;;;;;;15.48;71.50;101084.66;5055516;27;102380;-48
2021/11/08 03:33:19;;;;;;;7.63;6.80;;;;;;;15.49;71.56;101075.31;5049494;27;102310;-47
2021/11/08 03:35:46;;;;;;;8.55;7.10;;;;;;;15.48;71.53;101062.72;5039709;27;103813;-47
2021/11/08 03:38:14;;;;;;;8.45;6.95;;;;;;;15.49;71.27;101053.38;5050521;27;102569;-47
2021/11/08 03:40:44;;;;;;;7.65;6.78;;;;;;;15.49;71.54;101078.06;5039651;27;102330;-49
2021/11/08 03:43:14;;;;;;;7.97;6.80;;;;;;;15.48;71.16;101079.19;5041420;27;103645;-48
2021/11/08 03:45:43;;;;;;;7.38;6.68;;;;;;;15.49;71.30;101069.84;5048514;27;104040;-48
2021/11/08 03:48:12;;;;;;;9.88;6.53;;;;;;;15.49;71.72;101053.38;5046804;27;102074;-50
2021/11/08 03:50:39;;;;;;;7.80;7.00;;;;;;;15.49;71.71;101047.88;5056418;27;102524;-48
2021/11/08 03:53:06;;;;;;;7.18;6.47;;;;;;;15.49;71.71;101069.84;5051770;27;102311;-47
2021/11/08 03:55:33;;;;;;;8.48;6.93;;;;;;;15.49;71.56;101089.03;5053492;27;104002;-47
2021/11/08 03:58:00;;;;;;;10.05;6.57;;;;;;;15.49;71.47;101085.47;5053576;27;102151;-47
2021/11/08 04:00:28;;;;;;;8.10;6.90;;;;;;;15.49;71.25;101097.25;5053259;27;102470;-49
2021/11/08 04:02:58;;;;;;;7.97;6.47;;;;;;;15.48;71.74;101112.09;5052065;27;104321;-47
2021/11/08 04:05:27;;;;;;;7.40;6.65;;;;;;;15.49;71.09;101108.22;5049391;27;103736;-48
2021/11/08 04:07:54;;;;;;;8.82;7.53;;;;;;;15.49;71.28;101100.00;5047656;27;102168;-47
2021/11/08 04:10:21;;;;;;;7.47;6.72;;;;;;;15.49;71.66;101107.41;5053110;27;102741;-47
2021/11/08 04:12:51;;;;;;;8.20;7.07;;;;;;;15.49;71.08;101108.22;5054106;27;102475;-47
2021/11/08 04:15:31;;;;;;;7.32;6.50;;;;;;;15.50;71.53;101093.41;5045793;27;103740;-47
2021/11/08 04:17:59;;;;;;;8.00;6.63;;;;;;;15.49;71.27;101085.47;5038965;27;102551;-48
2021/11/08 04:20:25;;;;;;;8.20;7.00;;;;;;;15.49;71.67;101105.50;5044931;27;102343;-50
2021/11/08 04:22:54;;;;;;;11.15;7.60;;;;;;;15.49;71.54;101102.75;5050390;27;102336;-47
2021/11/08 04:25:23;;;;;;;10.25;7.70;;;;;;;15.50;71.71;101084.34;5046887;27;103845;-47
2021/11/08 04:27:50;;;;;;;9.60;7.57;;;;;;;15.50;71.24;101076.94;5050919;27;102054;-46
2021/11/08 04:30:17;;;;;;;7.97;7.18;;;;;;;15.49;71.17;101080.81;5050341;27;102030;-48
2021/11/08 04:38:17;;;;;;;9.85;7.10;;;;;;;15.49;71.51;101036.91;5056673;27;102389;-48
2021/11/08 04:51:13;;;;;;;10.43;7.47;;;;;;;15.49;71.30;101080.81;5049933;27;102324;-47
2021/11/08 04:54:01;;;;;;;7.90;7.10;;;;;;;15.49;71.55;101086.28;5050577;27;102147;-48
2021/11/08 04:56:55;;;;;;;8.20;7.40;;;;;;;15.49;71.70;101078.06;5047551;27;103876;-46
2021/11/08 05:21:36;;;;;;;8.60;7.57;;;;;;;15.49;71.28;101091.78;5060753;27;102228;-47
2021/11/08 05:31:45;;;;;;;10.27;7.90;;;;;;;15.49;71.63;101110.97;5057413;27;102295;-47
2021/11/08 05:34:12;;;;;;;9.77;8.15;;;;;;;15.49;71.58;101105.50;5048049;27;104306;-47
2021/11/08 05:36:39;;;;;;;8.70;7.88;;;;;;;15.49;71.21;101102.75;5040573;27;102232;-47
2021/11/08 05:39:07;;;;;;;9.18;7.53;;;;;;;15.48;71.63;101092.88;5046600;27;103967;-45
2021/11/08 05:41:35;;;;;;;10.20;8.03;;;;;;;15.49;71.19;101097.25;5051727;27;102206;-46
2021/11/08 05:44:03;;;;;;;10.35;7.93;;;;;;;15.50;71.68;101107.13;5042853;27;102200;-45
2021/11/08 05:46:29;;;;;;;10.73;8.45;;;;;;;15.50;71.37;101115.34;5054261;27;102597;-45
2021/11/08 05:48:56;;;;;;;9.82;8.55;;;;;;;15.50;71.27;101112.59;5043343;27;103974;-46
2021/11/08 05:51:23;;;;;;;10.10;8.60;;;;;;;15.49;71.75;101108.22;5046503;27;104082;-46
2021/11/08 05:53:50;;;;;;;11.73;8.75;;;;;;;15.50;71.81;101115.34;5051996;27;102136;-46
2021/11/08 05:56:29;;;;;;;9.45;8.10;;;;;;;15.50;71.45;101120.81;5052691;27;102569;-45
2021/11/08 06:49:01;;;;;;;11.05;8.55;;;;;;;15.54;71.73;101176.75;5042271;27;102083;-47
2021/11/08 06:51:20;;;;;;;8.98;7.78;;;;;;;15.56;71.58;101179.19;5046109;27;102203;-47
2021/11/08 06:53:48;;;;;;;10.23;8.52;;;;;;;15.56;71.65;101171.78;5050058;27;103861;-45
2021/11/08 06:56:23;;;;;;;10.95;9.00;;;;;;;15.55;71.85;101170.16;5054298;27;102265;-46
2021/11/08 06:58:49;;;;;;;8.75;7.80;;;;;;;15.56;71.91;101180.00;5049289;27;102313;-46
2021/11/08 07:01:17;;;;;;;10.55;8.23;;;;;;;15.57;71.53;101187.13;5043717;27;102525;-45
2021/11/08 07:03:44;;;;;;;9.82;8.70;;;;;;;15.57;71.76;101186.31;5053066;27;103876;-47
2021/11/08 07:06:10;;;;;;;10.38;9.27;;;;;;;15.58;71.71;101187.97;5050824;27;102563;-45
2021/11/08 07:08:36;;;;;;;9.35;8.32;;;;;;;15.57;71.96;101187.13;5048269;27;102672;-45
2021/11/08 07:11:03;;;;;;;9.38;8.07;;;;;;;15.58;71.57;101187.97;5050239;27;102474;-45
2021/11/08 07:13:30;;;;;;;8.68;7.40;;;;;;;15.57;71.46;101189.88;5052182;27;104039;-47
2021/11/08 07:15:57;;;;;;;9.55;8.30;;;;;;;15.57;71.83;101191.78;5053396;27;103198;-46
2021/11/08 07:18:25;;;;;;;9.93;8.23;;;;;;;15.57;71.68;101187.13;5039781;27;102584;-46
2021/11/08 07:20:52;;;;;;;8.60;7.72;;;;;;;15.57;71.60;101187.13;5047661;27;102196;-46
2021/11/08 07:23:18;;;;;;;9.40;8.40;;;;;;;15.57;71.68;101198.09;5040961;27;103907;-45
2021/11/08 07:25:45;;;;;;;9.10;8.10;;;;;;;15.58;71.66;101194.25;5054367;27;102528;-45
2021/11/08 07:28:14;;;;;;;10.45;8.25;;;;;;;15.58;71.79;101190.72;5043122;27;102771;-46
2021/11/08 07:30:44;;;;;;;9.73;8.73;;;;;;;15.57;71.50;101189.88;5042417;27;102152;-45
2021/11/08 07:33:10;;;;;;;10.93;8.52;;;;;;;15.57;71.91;101189.88;5047603;27;104060;-45
2021/11/08 07:35:38;;;;;;;10.07;8.73;;;;;;;15.58;71.50;101188.78;5051797;27;102122;-45
2021/11/08 07:38:04;;;;;;;9.95;8.65;;;;;;;15.58;71.81;101177.81;5048258;27;102128;-45
2021/11/08 07:40:31;;;;;;;9.25;8.00;;;;;;;15.58;71.50;101161.34;5051784;27;102654;-45
2021/11/08 07:42:57;;;;;;;10.02;8.23;;;;;;;15.57;71.84;101159.69;5039978;27;103748;-46
2021/11/08 07:45:26;;;;;;;10.95;8.55;;;;;;;15.57;71.71;101158.88;5046975;27;102354;-44
2021/11/08 07:47:53;;;;;;;10.35;8.63;;;;;;;15.58;71.47;101155.03;5047714;27;102010;-45
2021/11/08 07:50:20;;;;;;;8.68;7.55;;;;;;;15.58;71.93;101155.03;5049493;27;102309;-46
2021/11/08 07:52:48;;;;;;;8.90;8.00;;;;;;;15.58;72.14;101160.53;5051073;27;103884;-46
2021/11/08 07:55:14;;;;;;;10.38;9.20;;;;;;;15.58;71.77;101158.59;5051475;27;102114;-45
2021/11/08 07:57:41;;;;;;;12.23;8.70;;;;;;;15.58;71.58;101155.84;5052633;27;102613;-46
2021/11/08 08:00:09;;;;;;;9.85;8.20;;;;;;;15.58;71.60;101161.34;5041130;27;102550;-45
2021/11/08 08:02:36;;;;;;;8.93;8.00;;;;;;;15.58;71.73;101175.06;5052629;27;103911;-44
2021/11/08 08:05:03;;;;;;;9.25;8.07;;;;;;;15.59;71.91;101178.63;5052895;27;103139;-45
2021/11/08 08:07:29;;;;;;;9.68;8.68;;;;;;;15.58;71.56;101180.53;5051570;27;102238;-46
2021/11/08 08:09:57;;;;;;;10.50;8.30;;;;;;;15.59;72.06;101182.16;5044649;27;104242;-46
2021/11/08 08:12:24;;;;;;;9.68;8.23;;;;;;;15.58;72.03;101182.47;5042691;27;104597;-47
2021/11/08 08:14:50;;;;;;;9.43;8.27;;;;;;;15.58;71.52;101183.28;5045726;27;102243;-45
2021/11/08 08:17:17;;;;;;;10.75;9.07;;;;;;;15.58;71.73;101183.28;5046321;27;102441;-45
2021/11/08 08:19:45;;;;;;;10.95;8.38;;;;;;;15.58;71.79;101186.03;5048177;27;103555;-48
2021/11/08 08:22:11;;;;;;;9.00;7.97;;;;;;;15.59;71.67;101182.16;5041494;27;103584;-45
2021/11/08 08:24:38;;;;;;;11.98;9.02;;;;;;;15.59;71.91;101178.63;5045612;27;102135;-45
2021/11/08 08:27:06;;;;;;;10.45;9.35;;;;;;;15.59;71.57;101156.66;5047245;27;102948;-46
2021/11/08 08:29:33;;;;;;;11.20;9.25;;;;;;;15.59;71.67;101149.25;5053037;27;102254;-44
2021/11/08 08:32:00;;;;;;;9.90;8.20;;;;;;;15.58;71.80;101150.38;5048622;27;103936;-46
2021/11/08 08:34:29;;;;;;;10.75;9.15;;;;;;;15.59;72.05;101156.66;5046659;27;102433;-45
2021/11/08 08:36:57;;;;;;;10.85;8.82;;;;;;;15.59;71.72;101173.94;5045442;27;102764;-47
2021/11/08 08:39:24;;;;;;;9.38;8.38;;;;;;;15.58;71.62;101172.31;5048634;27;102494;-45
2021/11/08 08:41:51;;;;;;;10.13;8.50;;;;;;;15.60;71.66;101175.56;5034492;27;103938;-46
2021/11/08 08:44:19;;;;;;;10.10;9.05;;;;;;;15.59;71.81;101171.19;5047454;27;102292;-45
2021/11/08 08:46:46;;;;;;;9.85;8.60;;;;;;;15.60;71.94;101161.03;5040433;27;102215;-46
2021/11/08 08:49:13;;;;;;;9.63;8.35;;;;;;;15.59;71.95;101162.16;5053058;27;102740;-45
2021/11/08 08:51:41;;;;;;;11.88;8.88;;;;;;;15.59;72.25;101157.47;5039697;27;103891;-46
2021/11/08 08:54:07;;;;;;;10.15;9.02;;;;;;;15.59;71.86;101149.25;5037307;27;102187;-47
2021/11/08 08:56:34;;;;;;;11.05;8.88;;;;;;;15.59;71.57;101146.50;5036685;27;102539;-46
2021/11/08 08:59:01;;;;;;;10.88;8.95;;;;;;;15.60;71.64;101134.41;5052835;27;102264;-45
2021/11/08 09:01:30;;;;;;;10.48;9.13;;;;;;;15.60;71.69;101130.84;5044855;27;103896;-45
2021/11/08 09:03:57;;;;;;;;;;;;;;;15.60;71.82;101125.38;5052113;27;102244;-45
2021/11/08 09:06:25;;;;;;;10.15;8.82;;;;;;;15.59;71.71;101108.09;5042360;27;102689;-45
2021/11/08 09:08:52;;;;;;;9.52;8.60;;;;;;;15.61;72.01;101105.03;5050388;27;102286;-45
2021/11/08 09:11:19;;;;;;;10.43;8.48;;;;;;;15.60;72.16;101090.53;5047582;27;107844;-45
2021/11/08 09:13:46;;;;;;;9.52;8.50;;;;;;;15.60;72.03;101084.22;5043946;27;102768;-48
2021/11/08 09:16:13;;;;;;;10.55;9.18;;;;;;;15.59;71.66;101075.19;5050339;27;102175;-46
2021/11/08 09:18:43;;;;;;;9.65;8.50;;;;;;;15.58;72.16;101084.53;5054464;27;102881;-45
2021/11/08 09:21:11;;;;;;;9.85;8.55;;;;;;;15.59;71.93;101091.63;5051851;27;104644;-45
2021/11/08 09:23:39;;;;;;;11.27;8.45;;;;;;;15.60;72.28;101086.97;5054670;27;102616;-45
2021/11/08 09:26:07;;;;;;;9.85;8.85;;;;;;;15.60;71.98;101087.78;5051218;27;102168;-47
2021/11/08 09:28:35;;;;;;;8.88;7.95;;;;;;;15.60;71.74;101081.47;5046704;27;102683;-45
2021/11/08 09:31:03;;;;;;;9.48;8.02;;;;;;;15.60;71.80;101096.00;5044394;27;103951;-48
2021/11/08 09:33:30;;;;;;;10.20;8.98;;;;;;;15.60;72.11;101104.22;5047638;27;103235;-48
2021/11/08 09:36:05;;;;;;;10.50;9.00;;;;;;;15.60;71.82;101109.72;5049186;27;103941;-46
2021/11/08 09:38:33;;;;;;;9.57;8.40;;;;;;;15.60;71.80;101117.94;5050709;27;102459;-45
2021/11/08 09:41:02;;;;;;;10.43;8.90;;;;;;;15.61;71.96;101122.34;5046036;27;104059;-46
2021/11/08 09:43:30;;;;;;;11.97;8.53;;;;;;;15.61;72.16;101133.31;5055118;27;102008;-45
2021/11/08 09:45:56;;;;;;;10.93;8.45;;;;;;;15.60;71.68;101137.16;5050525;27;102754;-46
2021/11/08 09:48:24;;;;;;;9.82;8.63;;;;;;;15.61;71.66;101144.28;5049259;27;102194;-45
2021/11/08 09:50:51;;;;;;;10.05;8.77;;;;;;;15.61;71.85;101146.19;5048608;27;103917;-45
2021/11/08 09:53:19;;;;;;;9.80;8.70;;;;;;;15.61;72.02;101152.53;5049503;27;102297;-45
2021/11/08 09:55:46;;;;;;;11.52;8.43;;;;;;;15.61;72.06;101149.78;5048873;27;102121;-45
2021/11/08 09:58:13;;;;;;;9.80;8.70;;;;;;;15.61;72.07;101149.78;5056092;27;102719;-45
2021/11/08 10:00:50;;;;;;;10.75;9.05;;;;;;;15.61;72.04;101149.78;5052069;27;103923;-45
2021/11/08 10:03:21;;;;;;;10.35;8.77;;;;;;;15.61;71.92;101160.75;5038273;27;102985;-45
2021/11/08 10:05:49;;;;;;;9.77;8.10;;;;;;;15.60;71.66;101156.34;5047933;27;102502;-44
2021/11/08 10:08:19;;;;;;;10.07;8.48;;;;;;;15.61;72.20;101149.78;5052273;27;105470;-46
2021/11/08 10:10:46;;;;;;;11.38;8.90;;;;;;;15.61;71.68;101152.53;5048395;27;103907;-51
2021/11/08 10:13:15;;;;;;;9.95;8.50;;;;;;;15.60;71.72;101150.88;5036642;27;102220;-50
2021/11/08 10:15:44;;;;;;;10.85;8.32;;;;;;;15.60;72.04;101148.13;5050301;27;102757;-48
2021/11/08 10:18:11;;;;;;;9.93;8.48;;;;;;;15.60;71.99;101137.16;5052688;27;102380;-49
2021/11/08 10:20:41;;;;;;;11.55;8.57;;;;;;;15.60;71.68;101131.66;5045066;27;103895;-48
2021/11/08 10:23:09;;;;;;;10.43;8.38;;;;;;;15.61;72.11;101152.53;5049435;27;102333;-46
2021/11/08 10:25:39;;;;;;;10.37;8.60;;;;;;;15.61;71.72;101158.00;5042889;27;102152;-48
2021/11/08 10:28:11;;;;;;;10.93;8.90;;;;;;;15.62;72.11;101156.91;5045090;27;102588;-45
2021/11/08 10:30:38;;;;;;;9.80;8.57;;;;;;;15.61;71.96;101160.75;5048845;27;104142;-45
2021/11/08 10:33:14;;;;;;;11.15;8.50;;;;;;;15.61;72.10;101165.41;5053290;27;102642;-46
2021/11/08 10:35:45;;;;;;;9.77;8.77;;;;;;;15.62;71.65;101167.06;5004949;28;102472;-48
2021/11/08 10:38:14;;;;;;;9.77;8.73;;;;;;;15.60;71.98;101163.78;5005449;28;102428;-48
2021/11/08 10:40:48;;;;;;;9.88;8.68;;;;;;;15.61;71.98;101171.72;5006022;28;103993;-47
2021/11/08 10:43:24;;;;;;;11.75;8.50;;;;;;;15.61;72.06;101171.72;5013570;28;102095;-48
2021/11/08 10:45:52;;;;;;;11.70;8.57;;;;;;;15.61;71.99;101166.25;5012402;28;102280;-45
2021/11/08 10:48:22;;;;;;;8.95;8.05;;;;;;;15.60;71.89;101164.59;5012327;28;102160;-46
2021/11/08 10:50:51;;;;;;;9.70;7.95;;;;;;;15.60;71.71;101172.81;5012598;28;105894;-47
2021/11/08 10:53:18;;;;;;;;;;;;;;;15.61;71.55;101170.88;5003851;28;102079;-48
2021/11/08 10:55:50;;;;;;;9.88;7.95;;;;;;;15.60;71.81;101163.78;5011116;28;102673;-45
2021/11/08 10:58:20;;;;;;;11.35;8.50;;;;;;;15.61;71.95;101177.22;5011833;28;102794;-45
2021/11/08 11:00:53;;;;;;;9.48;8.45;;;;;;;15.60;71.85;101170.06;5006901;28;104029;-44
2021/11/08 11:03:21;;;;;;;9.68;8.63;;;;;;;15.62;72.05;101175.28;5007546;28;102756;-48
2021/11/08 11:05:55;;;;;;;11.07;8.63;;;;;;;15.62;71.54;101178.03;5012701;28;102574;-46
2021/11/08 11:08:21;;;;;;;12.10;8.98;;;;;;;15.62;71.73;101164.31;5000002;28;102194;-47
2021/11/08 11:10:54;;;;;;;11.13;9.05;;;;;;;15.61;71.83;101182.72;5000916;28;103981;-49
2021/11/08 11:13:51;;;;;;;9.93;8.80;;;;;;;15.61;72.10;101188.19;5012998;28;102199;-45
2021/11/08 11:16:28;;;;;;;;;;;;;;;15.62;71.90;101178.03;5008816;28;102347;-47
2021/11/08 11:18:58;;;;;;;10.05;8.60;;;;;;;15.62;71.83;101170.63;5008210;28;102153;-48
2021/11/08 11:21:24;;;;;;;9.10;8.20;;;;;;;15.62;71.72;101178.03;5005919;28;103906;-46
2021/11/08 11:23:51;;;;;;;11.35;8.40;;;;;;;15.62;72.17;101170.63;5007605;28;102198;-46
2021/11/08 11:26:23;;;;;;;9.27;8.38;;;;;;;15.62;72.13;101162.38;5005711;28;102135;-47
2021/11/08 11:28:51;;;;;;;10.02;8.80;;;;;;;15.62;71.77;101156.91;5007388;28;102051;-46
2021/11/08 11:31:20;;;;;;;9.82;8.45;;;;;;;15.62;72.08;101173.34;5011891;28;104036;-46
2021/11/08 11:33:47;;;;;;;9.52;8.52;;;;;;;15.62;72.19;101178.84;5020535;27;102348;-47
2021/11/08 11:36:18;;;;;;;11.15;8.30;;;;;;;15.62;71.83;101161.56;5047913;27;102385;-46
2021/11/08 11:38:50;;;;;;;10.27;8.45;;;;;;;15.63;71.90;101161.25;5053689;27;102165;-46
2021/11/08 11:41:19;;;;;;;9.52;8.55;;;;;;;15.62;71.89;101156.91;5052379;27;103868;-46
2021/11/08 11:43:49;;;;;;;10.80;8.57;;;;;;;15.62;71.80;101132.19;5039887;27;102439;-46
2021/11/08 11:46:17;;;;;;;9.07;8.18;;;;;;;15.62;72.33;101151.41;5046572;27;102913;-47
2021/11/08 11:48:44;;;;;;;10.20;8.15;;;;;;;15.62;72.32;101148.66;5044393;27;102580;-45
2021/11/08 11:51:14;;;;;;;8.57;7.68;;;;;;;15.63;71.97;101149.47;5050250;27;103189;-45
2021/11/08 11:53:42;;;;;;;9.68;8.05;;;;;;;15.62;72.19;101143.19;5044749;27;102424;-46
2021/11/08 11:56:10;;;;;;;8.95;8.00;;;;;;;15.63;71.92;101147.53;5038559;27;102416;-46
2021/11/08 11:58:38;;;;;;;8.70;7.80;;;;;;;15.61;71.75;101144.28;5045349;27;102413;-46
2021/11/08 12:01:07;;;;;;;10.97;8.07;;;;;;;15.62;72.11;101145.91;5046417;27;103888;-45
2021/11/08 12:03:34;;;;;;;10.73;7.80;;;;;;;15.63;72.27;101130.28;5041445;27;102139;-45
2021/11/08 12:06:02;;;;;;;9.25;8.25;;;;;;;15.63;72.43;101141.25;5050939;27;102836;-45
2021/11/08 12:08:34;;;;;;;10.02;8.18;;;;;;;15.63;71.86;101146.72;5037770;27;102497;-46
2021/11/08 12:11:03;;;;;;;12.40;9.00;;;;;;;15.63;71.82;101149.47;5044587;27;103868;-45
2021/11/08 12:13:30;;;;;;;11.33;8.43;;;;;;;15.63;71.73;101168.69;5033863;27;104037;-44
2021/11/08 12:16:11;;;;;;;9.30;8.15;;;;;;;15.62;72.10;101167.88;5052465;27;102580;-45
2021/11/08 12:18:37;;;;;;;11.48;8.57;;;;;;;15.62;72.17;101162.38;5046060;27;102589;-46
2021/11/08 12:21:04;;;;;;;10.07;8.95;;;;;;;15.62;71.89;101156.91;5044587;27;103869;-46
2021/11/08 12:23:36;;;;;;;11.90;9.25;;;;;;;15.63;72.28;101141.25;5021733;27;103377;-46
2021/11/08 12:26:03;;;;;;;12.07;9.55;;;;;;;15.62;72.09;101145.91;5051125;27;102214;-46
2021/11/08 12:28:30;;;;;;;10.95;9.00;;;;;;;15.63;71.72;101135.75;5052129;27;102516;-46
2021/11/08 12:31:01;;;;;;;13.57;10.68;;;;;;;15.62;72.32;101132.19;5045143;27;103895;-47
2021/11/08 12:33:30;;;;;;;14.02;11.13;;;;;;;15.62;72.12;101134.94;5052634;27;102177;-45
2021/11/08 12:35:59;;;;;;;13.65;10.13;;;;;;;15.61;72.25;101147.03;5046816;27;102438;-46
2021/11/08 12:38:28;;;;;;;13.52;10.55;;;;;;;15.63;72.23;101157.72;5052433;27;102983;-45
2021/11/08 12:41:10;;;;;;;12.77;10.82;;;;;;;15.62;72.21;101162.38;5049663;27;103156;-46
2021/11/08 12:43:40;;;;;;;12.35;10.55;;;;;;;15.62;72.00;101169.81;5047839;27;102076;-45
2021/11/08 12:46:15;;;;;;;;;;;;;;;15.61;72.21;101171.72;5049949;27;102158;-46
2021/11/08 12:48:42;;;;;;;19.50;11.57;;;;;;;15.60;71.69;101175.56;5048389;27;102708;-47
2021/11/08 12:51:11;;;;;;;13.18;11.05;;;;;;;15.61;72.10;101174.47;5046666;27;103927;-47
2021/11/08 12:53:41;;;;;;;13.52;11.73;;;;;;;15.61;71.83;101193.69;5042596;27;102162;-45
2021/11/08 12:56:18;;;;;;;;;;;;;;;15.61;72.32;101187.34;5051764;27;102372;-46
2021/11/08 12:58:50;;;;;;;15.87;11.77;;;;;;;15.62;72.02;101175.28;5056444;27;104642;-47
2021/11/08 13:12:04;;;;;;;16.33;12.20;;;;;;;15.61;72.21;101165.41;5269084;22;105364;31
2021/11/08 13:51:26;;;;;;;16.85;12.90;;;;;;;15.59;72.25;101189.59;5200886;23;103643;-54
2021/11/08 14:02:47;;;;;;;16.85;13.48;;;;;;;15.59;72.03;101195.06;4947169;28;102482;-48
2021/11/08 14:05:14;;;;;;;15.93;12.75;;;;;;;15.59;71.90;101197.81;4941221;28;102219;-47